< < Back
Terminal Aerodrome Forecast


Current Version              Previous Versions:   1  2  3  4  5  6  7  8  9  

Terminal Aerodrome Forecast

050
FTUS42 KFFC 251724
TAFMCN
TAF
KMCN 251724Z 2518/2618 31008KT P6SM VCSH SCT060
      TEMPO 2520/2524 4SM -TSRA BKN040CB
     FM260200 34006KT P6SM SCT070
     FM261000 06008KT P6SM BKN015
     FM261500 07009KT P6SM SCT035
     FM261700 08010KT P6SM VCSH SCT050=



Latest METAR

396
SAUS80 KWBC 260900 RRA
MTRMCN
METAR KMCN 260853Z AUTO 00000KT 10SM CLR 23/21 A3008 RMK AO2 SLP181
T02330206 53008 TSNO


USA.gov is the U.S. government's official web portal to all federal, state and local government web resources and services.